createdAt,value
2018-05-09T00:00:36.465Z,16.50
2018-05-09T00:03:09.131Z,16.40
2018-05-09T00:05:41.732Z,16.40
2018-05-09T00:08:15.131Z,16.30
2018-05-09T00:10:47.744Z,16.20
2018-05-09T00:13:21.123Z,16.20
2018-05-09T00:15:53.720Z,16.20
2018-05-09T00:18:26.352Z,16.10
2018-05-09T00:20:58.958Z,16.10
2018-05-09T00:23:31.581Z,16.10
2018-05-09T00:26:04.172Z,16.00
2018-05-09T00:28:36.816Z,16.00
2018-05-09T00:31:09.424Z,15.90
2018-05-09T00:33:42.069Z,15.90
2018-05-09T00:36:14.662Z,15.90
2018-05-09T00:38:47.312Z,15.90
2018-05-09T00:41:19.922Z,15.80
2018-05-09T00:43:52.558Z,15.80
2018-05-09T00:46:25.164Z,15.80
2018-05-09T00:48:57.803Z,15.70
2018-05-09T00:51:30.407Z,15.70
2018-05-09T00:54:15.079Z,15.70
2018-05-09T00:56:47.668Z,15.60
2018-05-09T00:59:20.300Z,15.60
2018-05-09T01:01:52.900Z,15.50
2018-05-09T01:04:25.539Z,15.50
2018-05-09T01:06:58.147Z,15.40
2018-05-09T01:09:30.772Z,15.30
2018-05-09T01:12:03.383Z,15.30
2018-05-09T01:14:36.033Z,15.30
2018-05-09T01:17:09.416Z,15.20
2018-05-09T01:19:42.046Z,15.20
2018-05-09T01:22:14.638Z,15.10
2018-05-09T01:24:48.056Z,15.10
2018-05-09T01:27:30.466Z,15.10
2018-05-09T01:30:03.083Z,15.00
2018-05-09T01:32:35.671Z,15.00
2018-05-09T01:35:08.299Z,15.00
2018-05-09T01:37:40.895Z,14.90
2018-05-09T01:40:13.527Z,14.90
2018-05-09T01:42:46.123Z,14.90
2018-05-09T01:45:18.763Z,14.90
2018-05-09T01:47:51.375Z,14.80
2018-05-09T01:50:23.987Z,14.80
2018-05-09T01:52:56.579Z,14.80
2018-05-09T01:55:29.187Z,14.70
2018-05-09T01:58:01.787Z,14.70
2018-05-09T02:00:34.423Z,14.60
2018-05-09T02:03:07.027Z,14.60
2018-05-09T02:05:39.668Z,14.60
2018-05-09T02:08:12.270Z,14.60
2018-05-09T02:10:44.915Z,14.50
2018-05-09T02:13:17.523Z,14.50
2018-05-09T02:15:50.154Z,14.50
2018-05-09T02:18:22.786Z,14.50
2018-05-09T02:20:55.427Z,14.40
2018-05-09T02:23:28.014Z,14.40
2018-05-09T02:26:00.648Z,14.40
2018-05-09T02:28:34.019Z,14.30
2018-05-09T02:31:06.693Z,14.30
2018-05-09T02:33:39.272Z,14.30
2018-05-09T02:36:11.899Z,14.30
2018-05-09T02:38:44.503Z,14.30
2018-05-09T02:41:17.120Z,14.30
2018-05-09T02:43:50.555Z,14.20
2018-05-09T02:46:23.127Z,14.20
2018-05-09T02:48:56.497Z,14.20
2018-05-09T02:51:29.127Z,14.20
2018-05-09T02:54:01.723Z,14.20
2018-05-09T02:56:34.362Z,14.20
2018-05-09T02:59:06.963Z,14.10
2018-05-09T03:01:39.607Z,14.10
2018-05-09T03:04:12.200Z,14.20
2018-05-09T03:06:44.830Z,14.10
2018-05-09T03:09:17.428Z,14.10
2018-05-09T03:11:50.063Z,14.10
2018-05-09T03:14:22.664Z,14.10
2018-05-09T03:16:55.306Z,14.10
2018-05-09T03:19:27.907Z,14.10
2018-05-09T03:22:00.542Z,14.10
2018-05-09T03:24:33.136Z,14.00
2018-05-09T03:27:05.771Z,14.00
2018-05-09T03:29:38.363Z,14.00
2018-05-09T03:32:10.966Z,14.00
2018-05-09T03:34:43.573Z,13.90
2018-05-09T03:37:16.208Z,13.90
2018-05-09T03:39:48.839Z,13.90
2018-05-09T03:42:21.497Z,13.90
2018-05-09T03:44:54.087Z,13.80
2018-05-09T03:47:26.728Z,13.80
2018-05-09T03:50:00.095Z,13.70
2018-05-09T03:52:32.735Z,13.70
2018-05-09T03:55:05.329Z,13.70
2018-05-09T03:57:38.703Z,13.70
2018-05-09T04:00:11.299Z,13.60
2018-05-09T04:02:56.640Z,13.60
2018-05-09T04:05:41.067Z,13.60
2018-05-09T04:08:25.498Z,13.60
2018-05-09T04:10:58.094Z,13.70
2018-05-09T04:13:30.724Z,13.60
2018-05-09T04:16:03.340Z,13.60
2018-05-09T04:18:36.729Z,13.60
2018-05-09T04:21:10.120Z,13.60
2018-05-09T04:23:42.742Z,13.50
2018-05-09T04:26:15.352Z,13.60
2018-05-09T04:28:49.836Z,13.60
2018-05-09T04:31:22.433Z,13.60
2018-05-09T04:33:55.050Z,13.70
2018-05-09T04:36:27.663Z,13.70
2018-05-09T04:39:00.331Z,13.70
2018-05-09T04:41:32.939Z,13.70
2018-05-09T04:44:05.584Z,13.80
2018-05-09T04:46:38.184Z,13.80
2018-05-09T04:49:10.853Z,13.80
2018-05-09T04:51:43.464Z,13.80
2018-05-09T04:54:16.112Z,13.90
2018-05-09T04:56:48.716Z,13.90
2018-05-09T04:59:21.355Z,14.00
2018-05-09T05:01:54.718Z,14.10
2018-05-09T05:04:27.356Z,14.10
2018-05-09T05:07:00.026Z,14.20
2018-05-09T05:09:32.623Z,14.30
2018-05-09T05:12:05.224Z,14.40
2018-05-09T05:14:38.607Z,14.60
2018-05-09T05:17:11.199Z,14.60
2018-05-09T05:19:43.835Z,14.70
2018-05-09T05:22:16.442Z,14.80
2018-05-09T05:24:49.129Z,15.00
2018-05-09T05:27:21.688Z,15.10
2018-05-09T05:29:55.084Z,15.40
2018-05-09T05:32:27.696Z,15.30
2018-05-09T05:35:01.107Z,15.60
2018-05-09T05:37:33.704Z,15.60
2018-05-09T05:40:07.114Z,15.90
2018-05-09T05:42:40.484Z,16.00
2018-05-09T05:45:13.264Z,16.00
2018-05-09T05:47:45.743Z,16.20
2018-05-09T05:50:18.390Z,16.30
2018-05-09T05:52:51.751Z,16.60
2018-05-09T05:55:24.388Z,16.60
2018-05-09T05:57:56.979Z,16.80
2018-05-09T06:00:30.390Z,17.00
2018-05-09T06:03:02.991Z,17.00
2018-05-09T06:05:36.376Z,17.30
2018-05-09T06:08:08.975Z,17.30
2018-05-09T06:10:42.385Z,17.60
2018-05-09T06:13:14.988Z,17.60
2018-05-09T06:15:48.395Z,17.90
2018-05-09T06:18:20.997Z,17.90
2018-05-09T06:20:53.636Z,18.00
2018-05-09T06:23:26.243Z,18.10
2018-05-09T06:25:58.856Z,18.20
2018-05-09T06:28:32.220Z,18.40
2018-05-09T06:31:04.968Z,18.40
2018-05-09T06:33:37.501Z,18.60
2018-05-09T06:36:10.131Z,18.60
2018-05-09T06:38:42.727Z,18.80
2018-05-09T06:41:16.130Z,19.00
2018-05-09T06:43:49.041Z,19.00
2018-05-09T06:46:22.447Z,19.20
2018-05-09T06:48:55.043Z,19.20
2018-05-09T06:51:28.429Z,19.40
2018-05-09T06:54:01.023Z,19.40
2018-05-09T06:56:34.408Z,19.60
2018-05-09T06:59:07.056Z,19.60
2018-05-09T07:01:40.440Z,19.80
2018-05-09T07:04:13.803Z,19.90
2018-05-09T07:06:46.897Z,19.90
2018-05-09T07:09:19.978Z,20.00
2018-05-09T07:11:52.623Z,20.10
2018-05-09T07:14:25.227Z,20.20
2018-05-09T07:16:57.856Z,20.30
2018-05-09T07:19:30.471Z,20.30
2018-05-09T07:22:03.108Z,20.40
2018-05-09T07:24:35.707Z,20.40
2018-05-09T07:27:09.111Z,20.60
2018-05-09T07:29:41.715Z,20.60
2018-05-09T07:32:14.355Z,20.70
2018-05-09T07:34:46.971Z,20.70
2018-05-09T07:37:19.596Z,20.80
2018-05-09T07:39:52.961Z,20.90
2018-05-09T07:42:25.607Z,20.80
2018-05-09T07:44:58.215Z,20.90
2018-05-09T07:47:30.946Z,21.00
2018-05-09T07:50:04.231Z,21.20
2018-05-09T07:52:36.864Z,21.20
2018-05-09T07:55:09.475Z,21.30
2018-05-09T07:57:42.124Z,21.40
2018-05-09T08:00:14.726Z,21.40
2018-05-09T08:02:47.367Z,21.50
2018-05-09T08:05:19.968Z,21.60
2018-05-09T08:07:52.601Z,21.60
2018-05-09T08:10:25.196Z,21.70
2018-05-09T08:12:57.922Z,21.80
2018-05-09T08:15:30.451Z,21.90
2018-05-09T08:18:03.085Z,22.00
2018-05-09T08:20:35.687Z,22.10
2018-05-09T08:23:08.335Z,22.20
2018-05-09T08:25:41.908Z,22.40
2018-05-09T08:28:14.552Z,22.50
2018-05-09T08:30:47.151Z,22.60
2018-05-09T08:33:19.786Z,22.80
2018-05-09T08:35:52.384Z,22.80
2018-05-09T08:38:25.004Z,23.00
2018-05-09T08:40:57.598Z,23.10
2018-05-09T08:43:30.319Z,23.20
2018-05-09T08:46:02.863Z,23.30
2018-05-09T08:48:35.511Z,23.40
2018-05-09T08:51:08.878Z,23.70
2018-05-09T08:53:41.518Z,23.70
2018-05-09T08:56:14.115Z,23.80
2018-05-09T08:58:46.758Z,24.00
2018-05-09T09:01:19.361Z,24.10
2018-05-09T09:03:51.971Z,24.30
2018-05-09T09:06:24.623Z,24.50
2018-05-09T09:08:57.225Z,24.70
2018-05-09T09:11:29.829Z,24.90
2018-05-09T09:14:02.443Z,25.10
2018-05-09T09:16:35.027Z,25.30
2018-05-09T09:19:08.423Z,25.70
2018-05-09T09:21:41.026Z,25.70
2018-05-09T09:24:14.422Z,26.10
2018-05-09T09:26:47.008Z,26.10
2018-05-09T09:29:19.758Z,26.30
2018-05-09T09:31:52.255Z,26.50
2018-05-09T09:34:24.899Z,26.60
2018-05-09T09:36:58.259Z,26.90
2018-05-09T09:39:30.891Z,26.90
2018-05-09T09:42:03.479Z,27.20
2018-05-09T09:44:36.092Z,27.30
2018-05-09T09:47:09.452Z,27.60
2018-05-09T09:49:42.091Z,27.50
2018-05-09T09:52:14.683Z,27.70
2018-05-09T09:54:48.068Z,28.00
2018-05-09T09:57:20.663Z,28.00
2018-05-09T09:59:53.304Z,28.20
2018-05-09T10:02:25.903Z,28.30
2018-05-09T10:04:58.519Z,28.30
2018-05-09T10:07:31.115Z,28.40
2018-05-09T10:10:03.748Z,28.60
2018-05-09T10:12:36.371Z,28.80
2018-05-09T10:15:08.994Z,28.90
2018-05-09T10:17:41.582Z,29.00
2018-05-09T10:20:14.194Z,29.20
2018-05-09T10:22:47.560Z,29.40
2018-05-09T10:25:20.195Z,29.30
2018-05-09T10:27:53.563Z,29.50
2018-05-09T10:30:26.179Z,29.50
2018-05-09T10:32:58.767Z,29.70
2018-05-09T10:35:31.394Z,29.70
2018-05-09T10:38:03.986Z,29.80
2018-05-09T10:40:36.611Z,29.90
2018-05-09T10:43:09.206Z,30.00
2018-05-09T10:45:41.847Z,30.00
2018-05-09T10:48:14.435Z,30.10
2018-05-09T10:50:47.151Z,30.10
2018-05-09T10:53:19.682Z,30.20
2018-05-09T10:55:52.319Z,30.30
2018-05-09T10:58:25.707Z,30.60
2018-05-09T11:00:58.335Z,30.60
2018-05-09T11:03:30.941Z,30.70
2018-05-09T11:06:03.591Z,30.80
2018-05-09T11:08:36.952Z,30.90
2018-05-09T11:11:09.564Z,30.90
2018-05-09T11:13:42.174Z,30.90
2018-05-09T11:16:15.550Z,30.80
2018-05-09T11:18:48.159Z,30.70
2018-05-09T11:21:20.775Z,30.70
2018-05-09T11:23:54.135Z,30.80
2018-05-09T11:26:26.814Z,30.80
2018-05-09T11:28:59.435Z,30.70
2018-05-09T11:31:32.090Z,30.80
2018-05-09T11:34:07.749Z,30.90
2018-05-09T11:36:40.385Z,30.90
2018-05-09T11:39:12.986Z,30.80
2018-05-09T11:41:45.615Z,30.90
2018-05-09T11:44:18.211Z,30.70
2018-05-09T11:46:50.829Z,30.80
2018-05-09T11:49:23.429Z,30.80
2018-05-09T11:51:56.059Z,30.90
2018-05-09T11:54:29.504Z,31.00
2018-05-09T11:57:02.151Z,31.00
2018-05-09T11:59:34.768Z,31.00
2018-05-09T12:02:08.223Z,30.90
2018-05-09T12:04:40.864Z,30.90
2018-05-09T12:07:13.510Z,30.80
2018-05-09T12:09:46.107Z,30.60
2018-05-09T12:12:18.743Z,30.70
2018-05-09T12:14:51.340Z,30.80
2018-05-09T12:17:23.967Z,30.90
2018-05-09T12:19:56.578Z,31.10
2018-05-09T12:22:29.223Z,31.10
2018-05-09T12:25:01.811Z,30.90
2018-05-09T12:27:34.433Z,31.00
2018-05-09T12:30:07.031Z,31.00
2018-05-09T12:32:39.663Z,31.20
2018-05-09T12:35:12.267Z,31.30
2018-05-09T12:37:45.647Z,31.30
2018-05-09T12:40:18.246Z,31.30
2018-05-09T12:42:50.863Z,31.40
2018-05-09T12:45:23.464Z,31.40
2018-05-09T12:47:56.091Z,31.40
2018-05-09T12:50:28.686Z,31.30
2018-05-09T12:53:01.323Z,31.40
2018-05-09T12:55:34.698Z,31.40
2018-05-09T12:58:07.361Z,31.40
2018-05-09T13:00:39.963Z,31.40
2018-05-09T13:03:12.611Z,31.40
2018-05-09T13:05:45.211Z,31.40
2018-05-09T13:08:17.863Z,31.50
2018-05-09T13:10:50.463Z,31.50
2018-05-09T13:13:23.160Z,31.60
2018-05-09T13:15:55.713Z,31.40
2018-05-09T13:18:28.357Z,31.40
2018-05-09T13:21:01.727Z,31.20
2018-05-09T13:23:34.342Z,31.10
2018-05-09T13:26:06.939Z,31.10
2018-05-09T13:28:40.368Z,31.40
2018-05-09T13:31:13.720Z,31.20
2018-05-09T13:33:46.392Z,31.20
2018-05-09T13:36:19.007Z,31.40
2018-05-09T13:38:51.652Z,31.50
2018-05-09T13:41:24.260Z,31.40
2018-05-09T13:43:56.875Z,31.40
2018-05-09T13:46:29.484Z,31.30
2018-05-09T13:49:02.112Z,31.30
2018-05-09T13:51:34.715Z,31.50
2018-05-09T13:54:07.341Z,31.40
2018-05-09T13:56:39.939Z,31.40
2018-05-09T13:59:12.589Z,31.30
2018-05-09T14:01:45.197Z,31.30
2018-05-09T14:04:17.822Z,31.20
2018-05-09T14:06:50.422Z,31.10
2018-05-09T14:09:23.043Z,31.20
2018-05-09T14:11:55.658Z,31.10
2018-05-09T14:14:28.280Z,31.10
2018-05-09T14:17:00.875Z,31.00
2018-05-09T14:19:33.533Z,30.80
2018-05-09T14:22:06.164Z,30.90
2018-05-09T14:24:38.815Z,30.80
2018-05-09T14:27:11.465Z,30.90
2018-05-09T14:29:44.124Z,31.00
2018-05-09T14:32:16.736Z,31.00
2018-05-09T14:34:50.151Z,31.00
2018-05-09T14:37:26.099Z,31.00
2018-05-09T14:39:58.783Z,30.90
2018-05-09T14:42:31.382Z,30.80
2018-05-09T14:45:04.024Z,30.60
2018-05-09T14:47:36.627Z,30.50
2018-05-09T14:50:09.268Z,30.40
2018-05-09T14:52:42.042Z,30.30
2018-05-09T14:55:15.748Z,30.00
2018-05-09T14:57:48.347Z,30.00
2018-05-09T15:00:21.039Z,30.00
2018-05-09T15:02:54.356Z,29.80
2018-05-09T15:05:26.967Z,29.80
2018-05-09T15:07:59.558Z,29.80
2018-05-09T15:10:36.555Z,29.90
2018-05-09T15:13:09.171Z,30.00
2018-05-09T15:15:41.796Z,30.10
2018-05-09T15:18:14.395Z,30.20
2018-05-09T15:20:47.053Z,30.30
2018-05-09T15:23:19.659Z,30.40
2018-05-09T15:25:52.276Z,30.30
2018-05-09T15:28:24.891Z,30.20
2018-05-09T15:30:57.508Z,30.00
2018-05-09T15:33:30.871Z,29.80
2018-05-09T15:36:03.529Z,29.80
2018-05-09T15:38:36.147Z,29.70
2018-05-09T15:41:08.820Z,29.60
2018-05-09T15:43:41.429Z,29.60
2018-05-09T15:46:14.063Z,29.50
2018-05-09T15:48:46.668Z,29.30
2018-05-09T15:51:19.307Z,29.40
2018-05-09T15:53:51.914Z,29.40
2018-05-09T15:56:24.574Z,29.40
2018-05-09T15:58:57.178Z,29.40
2018-05-09T16:01:33.932Z,29.50
2018-05-09T16:04:06.535Z,29.40
2018-05-09T16:06:39.168Z,29.40
2018-05-09T16:09:11.775Z,29.40
2018-05-09T16:11:44.402Z,29.30
2018-05-09T16:14:16.995Z,29.30
2018-05-09T16:16:49.616Z,29.10
2018-05-09T16:19:22.247Z,29.10
2018-05-09T16:21:54.902Z,29.00
2018-05-09T16:24:27.508Z,28.80
2018-05-09T16:27:00.154Z,28.80
2018-05-09T16:29:32.766Z,28.80
2018-05-09T16:32:05.411Z,28.60
2018-05-09T16:34:38.015Z,28.60
2018-05-09T16:37:10.638Z,28.50
2018-05-09T16:39:43.230Z,28.40
2018-05-09T16:42:15.876Z,28.30
2018-05-09T16:44:49.256Z,28.40
2018-05-09T16:47:21.912Z,28.40
2018-05-09T16:49:54.551Z,28.40
2018-05-09T16:52:27.174Z,28.30
2018-05-09T16:54:59.802Z,28.30
2018-05-09T16:57:33.244Z,28.30
2018-05-09T17:00:05.847Z,28.20
2018-05-09T17:02:39.277Z,28.20
2018-05-09T17:05:11.902Z,28.10
2018-05-09T17:07:44.539Z,28.10
2018-05-09T17:10:17.155Z,28.00
2018-05-09T17:12:49.811Z,27.90
2018-05-09T17:15:22.452Z,27.80
2018-05-09T17:17:55.116Z,27.60
2018-05-09T17:20:28.498Z,27.50
2018-05-09T17:23:01.137Z,27.50
2018-05-09T17:25:33.764Z,27.40
2018-05-09T17:28:06.417Z,27.30
2018-05-09T17:30:39.092Z,27.20
2018-05-09T17:33:11.712Z,27.10
2018-05-09T17:35:44.360Z,27.00
2018-05-09T17:38:17.007Z,26.90
2018-05-09T17:40:49.609Z,26.90
2018-05-09T17:43:22.259Z,26.80
2018-05-09T17:45:54.889Z,26.70
2018-05-09T17:48:27.547Z,26.60
2018-05-09T17:51:00.176Z,26.50
2018-05-09T17:53:32.875Z,26.40
2018-05-09T17:56:05.544Z,26.40
2018-05-09T17:58:38.251Z,26.30
2018-05-09T18:01:10.824Z,26.30
2018-05-09T18:03:43.484Z,26.20
2018-05-09T18:06:16.088Z,26.20
2018-05-09T18:08:49.499Z,26.20
2018-05-09T18:11:22.100Z,26.20
2018-05-09T18:13:54.724Z,26.20
2018-05-09T18:16:27.334Z,26.10
2018-05-09T18:19:00.049Z,26.10
2018-05-09T18:21:32.710Z,26.10
2018-05-09T18:24:05.451Z,26.10
2018-05-09T18:26:38.064Z,26.10
2018-05-09T18:29:11.473Z,25.90
2018-05-09T18:31:44.084Z,25.90
2018-05-09T18:34:16.727Z,25.90
2018-05-09T18:36:51.112Z,25.80
2018-05-09T18:39:23.956Z,25.70
2018-05-09T18:41:56.690Z,25.70
2018-05-09T18:44:29.427Z,25.70
2018-05-09T18:47:02.102Z,25.60
2018-05-09T18:49:34.767Z,25.50
2018-05-09T18:52:07.501Z,25.40
2018-05-09T18:54:40.161Z,25.30
2018-05-09T18:57:12.916Z,25.30
2018-05-09T18:59:45.927Z,25.20
2018-05-09T19:02:18.657Z,25.10
2018-05-09T19:04:54.529Z,25.00
2018-05-09T19:07:27.180Z,24.90
2018-05-09T19:09:59.888Z,24.80
2018-05-09T19:12:32.499Z,24.80
2018-05-09T19:15:05.223Z,24.70
2018-05-09T19:17:38.611Z,24.50
2018-05-09T19:20:11.641Z,24.50
2018-05-09T19:22:44.478Z,24.40
2018-05-09T19:25:17.128Z,24.40
2018-05-09T19:27:49.728Z,24.30
2018-05-09T19:30:22.372Z,24.30
2018-05-09T19:32:54.975Z,24.20
2018-05-09T19:35:27.629Z,24.10
2018-05-09T19:38:00.235Z,24.00
2018-05-09T19:40:32.884Z,23.90
2018-05-09T19:43:06.255Z,23.80
2018-05-09T19:45:38.915Z,23.70
2018-05-09T19:48:11.565Z,23.70
2018-05-09T19:50:44.208Z,23.60
2018-05-09T19:53:16.844Z,23.50
2018-05-09T19:55:49.479Z,23.50
2018-05-09T19:58:22.277Z,23.40
2018-05-09T20:00:54.915Z,23.30
2018-05-09T20:03:27.531Z,23.30
2018-05-09T20:06:00.160Z,23.30
2018-05-09T20:08:32.781Z,23.20
2018-05-09T20:11:05.421Z,23.20
2018-05-09T20:13:38.471Z,23.10
2018-05-09T20:16:11.089Z,23.10
2018-05-09T20:18:43.708Z,23.00
2018-05-09T20:21:17.120Z,22.90
2018-05-09T20:23:49.737Z,22.90
2018-05-09T20:26:22.447Z,22.80
2018-05-09T20:29:00.767Z,22.80
2018-05-09T20:31:50.957Z,22.80
2018-05-09T20:34:23.625Z,22.60
2018-05-09T20:36:56.292Z,22.60
2018-05-09T20:39:28.896Z,22.50
2018-05-09T20:42:01.579Z,22.50
2018-05-09T20:44:34.221Z,22.40
2018-05-09T20:47:06.883Z,22.40
2018-05-09T20:49:40.581Z,22.30
2018-05-09T20:52:13.428Z,22.30
2018-05-09T20:54:46.152Z,22.30
2018-05-09T20:57:18.840Z,22.20
2018-05-09T20:59:51.451Z,22.10
2018-05-09T21:02:24.079Z,22.10
2018-05-09T21:04:56.696Z,22.00
2018-05-09T21:07:29.345Z,21.90
2018-05-09T21:10:02.336Z,21.90
2018-05-09T21:12:35.158Z,21.80
2018-05-09T21:15:07.779Z,21.80
2018-05-09T21:17:40.444Z,21.70
2018-05-09T21:20:13.159Z,21.70
2018-05-09T21:22:45.923Z,21.60
2018-05-09T21:25:18.576Z,21.50
2018-05-09T21:27:51.228Z,21.50
2018-05-09T21:30:23.832Z,21.50
2018-05-09T21:32:56.513Z,21.40
2018-05-09T21:35:29.184Z,21.40
2018-05-09T21:38:01.812Z,21.30
2018-05-09T21:40:34.496Z,21.20
2018-05-09T21:43:07.172Z,21.20
2018-05-09T21:45:39.830Z,21.10
2018-05-09T21:48:12.611Z,21.10
2018-05-09T21:50:45.280Z,21.00
2018-05-09T21:53:18.001Z,21.00
2018-05-09T21:55:50.682Z,21.00
2018-05-09T21:58:23.373Z,20.90
2018-05-09T22:00:56.028Z,20.80
2018-05-09T22:03:28.684Z,20.70
2018-05-09T22:06:01.436Z,20.70
2018-05-09T22:08:34.256Z,20.60
2018-05-09T22:11:06.899Z,20.60
2018-05-09T22:13:39.584Z,20.50
2018-05-09T22:16:12.212Z,20.50
2018-05-09T22:18:44.878Z,20.40
2018-05-09T22:21:17.495Z,20.40
2018-05-09T22:23:50.432Z,20.40
2018-05-09T22:26:23.850Z,20.30
2018-05-09T22:28:57.280Z,20.20
2018-05-09T22:31:29.912Z,20.20
2018-05-09T22:34:02.704Z,20.20
2018-05-09T22:36:35.341Z,20.20
2018-05-09T22:39:08.781Z,20.20
2018-05-09T22:41:41.463Z,20.10
2018-05-09T22:44:14.129Z,20.10
2018-05-09T22:46:46.825Z,20.10
2018-05-09T22:49:19.479Z,20.10
2018-05-09T22:51:52.088Z,20.00
2018-05-09T22:54:24.739Z,20.00
2018-05-09T22:56:57.370Z,20.00
2018-05-09T22:59:30.053Z,19.90
2018-05-09T23:02:02.686Z,19.90
2018-05-09T23:04:35.352Z,19.80
2018-05-09T23:07:07.995Z,19.70
2018-05-09T23:09:40.653Z,19.70
2018-05-09T23:12:13.270Z,19.70
2018-05-09T23:14:46.048Z,19.60
2018-05-09T23:17:18.704Z,19.50
2018-05-09T23:19:51.344Z,19.50
2018-05-09T23:22:23.957Z,19.40
2018-05-09T23:24:56.627Z,19.40
2018-05-09T23:27:29.379Z,19.40
2018-05-09T23:30:02.037Z,19.30
2018-05-09T23:32:34.649Z,19.30
2018-05-09T23:35:07.324Z,19.20
2018-05-09T23:37:39.957Z,19.20
2018-05-09T23:40:12.610Z,19.20
2018-05-09T23:42:45.241Z,19.10
2018-05-09T23:45:17.921Z,19.10
2018-05-09T23:47:50.539Z,19.00
2018-05-09T23:50:23.193Z,19.00
2018-05-09T23:52:55.870Z,19.00
2018-05-09T23:55:28.560Z,18.90
2018-05-09T23:58:01.237Z,18.90
